Impacts TAF Board
For situational awareness. Not to be used for flight planning purposes.
IDs:

KVCT - Victoria Rgnl, TX, US

Issued at 1127 UTC 13 Dec 2019
Updated at 1351 UTC 13 Dec 2019
Potential Impact None Slight Moderate High
Time1321Z 13/14Z 13/15Z 13/16Z 13/17Z 13/18Z 13/19Z 13/20Z 13/21Z 13/22Z 13/23Z 14/00Z 14/01Z 14/02Z>>
Type OBS PRVL PRVL PRVL PRVL PRVL PRVL PRVL PRVL PRVL PRVL PRVL PRVL PRVL
VIS 3 0.5 >6 >6 >6 >6 >6 >6 >6 >6 >6 >6 >6 >6
CIG 4 7 -- -- -- -- -- -- -- -- -- -- -- --
Cover OVC OVX SCT SCT SCT FEW FEW FEW FEW FEW FEW FEW FEW FEW
FltCat LIFR LIFR VFR VFR VFR VFR VFR VFR VFR VFR VFR VFR VFR VFR
WX BR FG -- -- -- -- -- -- -- -- -- -- -- --
WDir 260 280 260 260 260 250 250 250 250 250 250 240 240 240
WSpd 6 4 7 7 7 12 12 12 12 12 12 8 8 8
WGst -- -- -- -- -- 20 20 20 20 20 20 -- -- --
Raw TAF
KVCT 131127Z 1312/1412 28004KT 1/2SM FG VV007
  FM131500 26007KT P6SM SCT015
  FM131800 25012G20KT P6SM FEW250
  FM140000 24008KT P6SM FEW250


Raw METAR
KVCT 131321Z 26006KT 3SM BR OVC004 14/13 A3000 RMK AO2 T01440133
KVCT 131300Z 24006KT 1/2SM FG OVC003 15/14 A2998 RMK AO2 T01500139
KVCT 131258Z 23005KT 3SM BR OVC003 15/14 A2998 RMK AO2 T01500139
KVCT 131251Z 24006KT 1 1/2SM BR OVC003 15/14 A2998 RMK AO2 SLP151 T01500139
KVCT 131151Z AUTO 27003KT 3/4SM BR OVC003 14/14 A2998 RMK AO2 SLP151 T01440139 10150 20117 55009
KVCT 131147Z AUTO 28004KT 3/4SM BR OVC003 14/14 A2999 RMK AO2
KVCT 131140Z AUTO 29005KT 1 3/4SM BR OVC005 14/14 A2999 RMK AO2 T01440139
KVCT 131131Z AUTO 28004KT 3SM BR OVC007 14/14 A2998 RMK AO2 T01440139
KVCT 131126Z AUTO 29004KT 1 1/2SM BR OVC007 14/13 A2999 RMK AO2 T01440133
KVCT 131116Z AUTO 29004KT 1/2SM FG VV007 14/13 A2999 RMK AO2 T01440133
KVCT 131107Z AUTO 29004KT 1 1/4SM BR OVC007 14/13 A2998 RMK AO2 T01440133
KVCT 131101Z AUTO 30003KT 2 1/2SM BR OVC007 14/13 A2998 RMK AO2 T01440133
KVCT 131051Z AUTO 00000KT 1 1/2SM BR OVC007 14/13 A2998 RMK AO2 SLP150 T01390133
KVCT 131042Z AUTO 00000KT 1 1/2SM BR OVC009 14/13 A2998 RMK AO2 T01390128

METAR Board
Radar Display
Forecast Discussion
For situational awareness. Not to be used for flight planning purposes.